createdAt,value
2017-05-20T00:00:31.353Z,16.80
2017-05-20T00:02:58.873Z,16.90
2017-05-20T00:05:26.010Z,17.10
2017-05-20T00:07:53.174Z,17.20
2017-05-20T00:10:20.448Z,17.30
2017-05-20T00:12:47.603Z,17.40
2017-05-20T00:15:14.744Z,17.40
2017-05-20T00:17:41.923Z,17.40
2017-05-20T00:20:09.113Z,17.50
2017-05-20T00:22:36.249Z,17.60
2017-05-20T00:25:03.448Z,17.60
2017-05-20T00:27:30.666Z,17.60
2017-05-20T00:29:57.818Z,17.60
2017-05-20T00:32:25.018Z,17.70
2017-05-20T00:34:52.174Z,17.70
2017-05-20T00:37:19.304Z,17.70
2017-05-20T00:39:46.484Z,17.70
2017-05-20T00:42:13.625Z,17.70
2017-05-20T00:44:40.764Z,17.70
2017-05-20T00:47:07.465Z,17.70
2017-05-20T00:49:34.625Z,17.70
2017-05-20T00:52:01.758Z,17.70
2017-05-20T00:54:28.925Z,17.70
2017-05-20T00:56:56.044Z,17.70
2017-05-20T00:59:23.230Z,17.70
2017-05-20T01:01:50.421Z,17.70
2017-05-20T01:04:17.553Z,17.70
2017-05-20T01:06:44.685Z,17.60
2017-05-20T01:09:11.902Z,17.60
2017-05-20T01:11:39.049Z,17.60
2017-05-20T01:14:06.204Z,17.60
2017-05-20T01:16:33.396Z,17.60
2017-05-20T01:19:00.544Z,17.60
2017-05-20T01:21:27.715Z,17.60
2017-05-20T01:23:54.924Z,17.50
2017-05-20T01:26:22.072Z,17.50
2017-05-20T01:28:49.235Z,17.50
2017-05-20T01:31:16.760Z,17.40
2017-05-20T01:33:43.161Z,17.40
2017-05-20T01:36:10.297Z,17.40
2017-05-20T01:38:37.493Z,17.30
2017-05-20T01:41:04.695Z,17.30
2017-05-20T01:43:31.877Z,17.30
2017-05-20T01:45:59.090Z,17.20
2017-05-20T01:48:26.268Z,17.20
2017-05-20T01:50:53.441Z,17.20
2017-05-20T01:53:20.641Z,17.20
2017-05-20T01:55:47.805Z,17.20
2017-05-20T01:58:14.960Z,17.20
2017-05-20T02:00:42.189Z,17.10
2017-05-20T02:03:09.321Z,17.10
2017-05-20T02:05:36.485Z,17.10
2017-05-20T02:08:03.673Z,17.10
2017-05-20T02:10:30.806Z,17.00
2017-05-20T02:12:57.965Z,17.00
2017-05-20T02:15:25.160Z,17.00
2017-05-20T02:17:52.306Z,17.00
2017-05-20T02:20:19.440Z,17.00
2017-05-20T02:22:46.632Z,17.00
2017-05-20T02:25:13.809Z,16.90
2017-05-20T02:27:40.962Z,16.90
2017-05-20T02:30:08.248Z,16.90
2017-05-20T02:32:35.389Z,16.90
2017-05-20T02:35:02.546Z,16.90
2017-05-20T02:37:29.741Z,16.90
2017-05-20T02:39:56.930Z,16.90
2017-05-20T02:42:24.089Z,16.80
2017-05-20T02:44:51.299Z,16.80
2017-05-20T02:47:18.444Z,16.80
2017-05-20T02:49:45.604Z,16.70
2017-05-20T02:52:12.788Z,16.70
2017-05-20T02:54:39.922Z,16.70
2017-05-20T02:57:07.073Z,16.70
2017-05-20T02:59:34.269Z,16.70
2017-05-20T03:02:01.451Z,16.70
2017-05-20T03:04:28.586Z,16.70
2017-05-20T03:06:55.768Z,16.70
2017-05-20T03:09:22.897Z,16.60
2017-05-20T03:11:50.040Z,16.60
2017-05-20T03:14:17.231Z,16.60
2017-05-20T03:16:44.397Z,16.60
2017-05-20T03:19:11.538Z,16.60
2017-05-20T03:21:38.737Z,16.60
2017-05-20T03:24:05.880Z,16.60
2017-05-20T03:26:33.024Z,16.60
2017-05-20T03:29:00.204Z,16.60
2017-05-20T03:31:27.342Z,16.60
2017-05-20T03:33:54.549Z,16.60
2017-05-20T03:36:21.733Z,16.60
2017-05-20T03:38:48.881Z,16.60
2017-05-20T03:41:23.034Z,16.60
2017-05-20T03:43:50.165Z,16.60
2017-05-20T03:46:17.316Z,16.60
2017-05-20T03:48:44.522Z,16.60
2017-05-20T03:51:11.665Z,16.50
2017-05-20T03:53:38.854Z,16.60
2017-05-20T03:56:06.058Z,16.60
2017-05-20T03:58:33.209Z,16.60
2017-05-20T04:01:00.345Z,16.60
2017-05-20T04:03:27.537Z,16.60
2017-05-20T04:05:54.682Z,16.60
2017-05-20T04:08:21.825Z,16.50
2017-05-20T04:10:49.039Z,16.50
2017-05-20T04:13:16.173Z,16.50
2017-05-20T04:15:43.313Z,16.50
2017-05-20T04:18:10.492Z,16.50
2017-05-20T04:20:37.637Z,16.50
2017-05-20T04:23:04.852Z,16.50
2017-05-20T04:25:32.022Z,16.50
2017-05-20T04:27:59.165Z,16.60
2017-05-20T04:30:26.310Z,16.60
2017-05-20T04:32:53.494Z,16.60
2017-05-20T04:35:20.618Z,16.70
2017-05-20T04:37:47.792Z,16.70
2017-05-20T04:40:14.995Z,16.70
2017-05-20T04:42:42.146Z,16.70
2017-05-20T04:45:09.301Z,16.70
2017-05-20T04:47:36.492Z,16.80
2017-05-20T04:50:03.673Z,16.80
2017-05-20T04:52:30.822Z,16.80
2017-05-20T04:54:58.062Z,16.90
2017-05-20T04:57:25.205Z,16.90
2017-05-20T04:59:52.375Z,17.00
2017-05-20T05:02:19.580Z,17.00
2017-05-20T05:04:46.710Z,17.10
2017-05-20T05:07:13.874Z,17.20
2017-05-20T05:09:41.066Z,17.30
2017-05-20T05:12:08.236Z,17.30
2017-05-20T05:14:35.398Z,17.40
2017-05-20T05:17:02.853Z,17.50
2017-05-20T05:19:30.005Z,17.40
2017-05-20T05:21:57.141Z,17.40
2017-05-20T05:24:24.353Z,17.40
2017-05-20T05:26:51.513Z,17.40
2017-05-20T05:29:18.656Z,17.40
2017-05-20T05:31:46.169Z,17.40
2017-05-20T05:34:13.310Z,17.50
2017-05-20T05:36:40.469Z,17.60
2017-05-20T05:39:07.668Z,17.70
2017-05-20T05:41:34.809Z,17.70
2017-05-20T05:44:01.990Z,17.70
2017-05-20T05:46:29.185Z,17.80
2017-05-20T05:48:56.330Z,17.80
2017-05-20T05:51:23.474Z,17.80
2017-05-20T05:53:50.741Z,17.80
2017-05-20T05:56:17.870Z,17.90
2017-05-20T05:58:45.094Z,17.90
2017-05-20T06:01:12.436Z,17.90
2017-05-20T06:03:39.769Z,17.90
2017-05-20T06:06:06.913Z,18.00
2017-05-20T06:08:34.071Z,18.00
2017-05-20T06:11:01.346Z,18.10
2017-05-20T06:13:28.637Z,18.10
2017-05-20T06:15:55.843Z,18.10
2017-05-20T06:18:22.992Z,18.20
2017-05-20T06:20:50.232Z,18.30
2017-05-20T06:23:17.361Z,18.30
2017-05-20T06:25:44.501Z,18.30
2017-05-20T06:28:11.725Z,18.30
2017-05-20T06:30:38.897Z,18.30
2017-05-20T06:33:06.050Z,18.40
2017-05-20T06:35:33.372Z,18.50
2017-05-20T06:38:00.620Z,18.50
2017-05-20T06:40:27.904Z,18.50
2017-05-20T06:42:55.056Z,18.60
2017-05-20T06:45:22.274Z,18.50
2017-05-20T06:47:49.445Z,18.60
2017-05-20T06:50:16.604Z,18.70
2017-05-20T06:52:43.874Z,18.80
2017-05-20T06:55:11.025Z,18.90
2017-05-20T06:57:38.180Z,19.10
2017-05-20T07:00:05.501Z,19.20
2017-05-20T07:02:32.658Z,19.20
2017-05-20T07:04:59.849Z,19.10
2017-05-20T07:07:27.034Z,19.10
2017-05-20T07:09:54.180Z,19.10
2017-05-20T07:12:21.328Z,19.10
2017-05-20T07:14:48.517Z,19.00
2017-05-20T07:17:15.653Z,19.00
2017-05-20T07:19:43.310Z,19.10
2017-05-20T07:22:10.572Z,19.30
2017-05-20T07:24:37.721Z,19.30
2017-05-20T07:27:04.881Z,19.30
2017-05-20T07:29:32.086Z,19.40
2017-05-20T07:31:59.233Z,19.40
2017-05-20T07:34:26.369Z,19.40
2017-05-20T07:36:53.839Z,19.60
2017-05-20T07:39:21.060Z,19.60
2017-05-20T07:41:48.244Z,19.80
2017-05-20T07:44:15.512Z,19.90
2017-05-20T07:46:42.644Z,20.00
2017-05-20T07:49:09.792Z,20.10
2017-05-20T07:51:36.965Z,20.10
2017-05-20T07:54:04.108Z,20.20
2017-05-20T07:56:31.264Z,20.30
2017-05-20T07:58:58.463Z,20.50
2017-05-20T08:01:25.604Z,20.50
2017-05-20T08:03:52.756Z,20.60
2017-05-20T08:06:19.985Z,20.60
2017-05-20T08:08:47.129Z,20.40
2017-05-20T08:11:14.268Z,20.30
2017-05-20T08:13:41.739Z,20.40
2017-05-20T08:16:08.883Z,20.50
2017-05-20T08:18:36.036Z,20.50
2017-05-20T08:21:03.493Z,20.60
2017-05-20T08:23:30.641Z,20.70
2017-05-20T08:25:57.792Z,20.80
2017-05-20T08:28:24.978Z,20.60
2017-05-20T08:30:52.113Z,20.60
2017-05-20T08:33:19.272Z,20.60
2017-05-20T08:35:46.464Z,20.50
2017-05-20T08:38:13.617Z,20.50
2017-05-20T08:40:40.753Z,20.60
2017-05-20T08:43:07.933Z,20.60
2017-05-20T08:45:35.072Z,20.80
2017-05-20T08:48:02.256Z,20.80
2017-05-20T08:50:29.697Z,20.90
2017-05-20T08:52:56.841Z,21.00
2017-05-20T08:55:23.981Z,21.00
2017-05-20T08:57:51.148Z,21.10
2017-05-20T09:00:18.289Z,21.00
2017-05-20T09:02:45.446Z,21.00
2017-05-20T09:05:12.616Z,21.00
2017-05-20T09:07:39.797Z,21.10
2017-05-20T09:10:06.932Z,21.00
2017-05-20T09:12:34.100Z,21.00
2017-05-20T09:15:01.277Z,21.00
2017-05-20T09:17:28.408Z,21.10
2017-05-20T09:19:55.697Z,21.10
2017-05-20T09:22:22.843Z,21.20
2017-05-20T09:24:49.996Z,21.40
2017-05-20T09:27:17.176Z,21.40
2017-05-20T09:29:44.329Z,21.40
2017-05-20T09:32:11.469Z,21.50
2017-05-20T09:34:38.630Z,21.40
2017-05-20T09:37:05.782Z,21.40
2017-05-20T09:39:32.989Z,21.40
2017-05-20T09:42:00.274Z,21.20
2017-05-20T09:44:27.457Z,21.10
2017-05-20T09:46:54.606Z,21.30
2017-05-20T09:49:21.888Z,21.30
2017-05-20T09:51:49.037Z,21.30
2017-05-20T09:54:16.185Z,21.30
2017-05-20T09:56:43.692Z,21.20
2017-05-20T09:59:10.838Z,21.30
2017-05-20T10:01:37.986Z,21.40
2017-05-20T10:04:05.245Z,21.50
2017-05-20T10:06:32.389Z,21.50
2017-05-20T10:08:59.537Z,21.40
2017-05-20T10:11:26.725Z,21.50
2017-05-20T10:13:53.896Z,21.50
2017-05-20T10:16:21.049Z,21.50
2017-05-20T10:18:48.233Z,21.40
2017-05-20T10:21:15.394Z,21.30
2017-05-20T10:23:42.526Z,21.30
2017-05-20T10:26:09.714Z,21.40
2017-05-20T10:28:36.859Z,21.40
2017-05-20T10:31:04.004Z,21.30
2017-05-20T10:33:31.273Z,21.30
2017-05-20T10:35:58.425Z,21.30
2017-05-20T10:38:25.576Z,21.40
2017-05-20T10:40:52.824Z,21.30
2017-05-20T10:43:19.956Z,21.30
2017-05-20T10:45:47.097Z,21.20
2017-05-20T10:48:14.371Z,21.30
2017-05-20T10:50:41.540Z,21.30
2017-05-20T10:53:08.694Z,21.50
2017-05-20T10:55:35.977Z,21.70
2017-05-20T10:58:03.133Z,21.70
2017-05-20T11:00:30.293Z,21.70
2017-05-20T11:02:57.461Z,21.70
2017-05-20T11:05:24.601Z,21.70
2017-05-20T11:07:51.745Z,21.70
2017-05-20T11:10:18.924Z,21.80
2017-05-20T11:12:46.061Z,21.80
2017-05-20T11:15:13.192Z,21.90
2017-05-20T11:17:40.358Z,22.00
2017-05-20T11:20:07.531Z,22.30
2017-05-20T11:22:34.697Z,22.50
2017-05-20T11:25:01.885Z,22.40
2017-05-20T11:27:29.035Z,22.60
2017-05-20T11:29:56.173Z,22.70
2017-05-20T11:32:23.416Z,22.70
2017-05-20T11:34:50.580Z,22.90
2017-05-20T11:37:17.721Z,23.10
2017-05-20T11:39:45.190Z,23.40
2017-05-20T11:42:12.360Z,23.70
2017-05-20T11:44:39.508Z,24.00
2017-05-20T11:47:06.745Z,24.00
2017-05-20T11:51:47.194Z,25.50
2017-05-20T11:56:25.713Z,25.50
2017-05-20T12:01:58.849Z,31.60
2017-05-20T12:04:27.297Z,32.40
2017-05-20T12:08:01.612Z,32.30
2017-05-20T12:10:28.689Z,31.90
2017-05-20T12:14:59.459Z,31.90
2017-05-20T12:17:26.628Z,29.20
2017-05-20T12:19:53.825Z,28.80
2017-05-20T12:24:01.328Z,28.20
2017-05-20T12:27:06.046Z,27.90
2017-05-20T12:29:34.972Z,27.60
2017-05-20T12:32:03.858Z,27.00
2017-05-20T12:34:32.747Z,26.60
2017-05-20T12:37:02.013Z,26.30
2017-05-20T12:39:30.902Z,27.40
2017-05-20T12:41:59.790Z,27.70
2017-05-20T12:44:28.744Z,27.50
2017-05-20T12:46:57.624Z,27.40
2017-05-20T12:49:26.518Z,28.00
2017-05-20T12:51:55.447Z,28.90
2017-05-20T12:54:24.331Z,29.80
2017-05-20T12:56:53.225Z,29.90
2017-05-20T12:59:22.824Z,29.00
2017-05-20T13:01:51.716Z,28.10
2017-05-20T13:04:20.607Z,27.60
2017-05-20T13:06:49.613Z,27.00
2017-05-20T13:09:18.500Z,26.50
2017-05-20T13:11:47.377Z,26.10
2017-05-20T13:14:16.303Z,26.10
2017-05-20T13:16:45.187Z,26.00
2017-05-20T13:19:14.073Z,27.10
2017-05-20T13:21:42.993Z,27.40
2017-05-20T13:24:11.884Z,27.00
2017-05-20T13:26:40.774Z,26.30
2017-05-20T13:29:09.702Z,26.00
2017-05-20T13:31:38.593Z,25.40
2017-05-20T13:34:07.484Z,25.10
2017-05-20T13:36:36.404Z,24.80
2017-05-20T13:39:05.296Z,24.60
2017-05-20T13:41:34.180Z,24.40
2017-05-20T13:44:03.190Z,24.30
2017-05-20T13:46:32.078Z,24.20
2017-05-20T13:49:00.972Z,24.20
2017-05-20T13:51:29.949Z,24.40
2017-05-20T13:53:58.856Z,25.00
2017-05-20T13:56:27.751Z,25.90
2017-05-20T13:58:56.681Z,27.00
2017-05-20T14:01:25.568Z,27.40
2017-05-20T14:03:54.464Z,26.90
2017-05-20T14:06:23.489Z,26.80
2017-05-20T14:08:52.393Z,27.20
2017-05-20T14:11:21.292Z,27.50
2017-05-20T14:13:50.212Z,28.10
2017-05-20T14:16:19.102Z,28.00
2017-05-20T14:18:47.989Z,29.50
2017-05-20T14:21:16.908Z,32.10
2017-05-20T14:23:45.794Z,34.20
2017-05-20T14:26:13.904Z,34.10
2017-05-20T14:28:42.829Z,35.70
2017-05-20T14:31:11.712Z,36.30
2017-05-20T14:33:40.597Z,34.70
2017-05-20T14:36:09.622Z,33.90
2017-05-20T14:38:38.512Z,32.10
2017-05-20T14:41:07.409Z,30.00
2017-05-20T14:43:36.329Z,30.40
2017-05-20T14:46:05.284Z,31.50
2017-05-20T14:48:34.189Z,32.50
2017-05-20T14:51:02.365Z,32.40
2017-05-20T14:53:31.268Z,32.00
2017-05-20T14:56:00.163Z,31.30
2017-05-20T14:58:29.082Z,31.30
2017-05-20T15:00:57.965Z,30.90
2017-05-20T15:03:26.848Z,30.30
2017-05-20T15:05:55.772Z,30.10
2017-05-20T15:08:24.662Z,29.60
2017-05-20T15:10:53.549Z,29.70
2017-05-20T15:13:22.529Z,28.90
2017-05-20T15:15:51.405Z,28.10
2017-05-20T15:18:20.306Z,29.50
2017-05-20T15:20:49.226Z,29.90
2017-05-20T15:23:18.122Z,29.70
2017-05-20T15:25:47.000Z,31.00
2017-05-20T15:28:15.929Z,30.80
2017-05-20T15:30:44.813Z,29.90
2017-05-20T15:33:13.706Z,28.80
2017-05-20T15:35:42.957Z,27.70
2017-05-20T15:38:11.849Z,26.60
2017-05-20T15:40:40.736Z,25.80
2017-05-20T15:43:09.936Z,25.50
2017-05-20T15:45:38.833Z,25.30
2017-05-20T15:48:07.725Z,25.10
2017-05-20T15:50:36.734Z,24.90
2017-05-20T15:53:05.617Z,24.70
2017-05-20T15:55:34.505Z,24.70
2017-05-20T15:58:03.424Z,24.70
2017-05-20T16:00:32.330Z,24.30
2017-05-20T16:03:01.217Z,24.20
2017-05-20T16:05:30.230Z,24.20
2017-05-20T16:07:59.177Z,24.00
2017-05-20T16:10:28.066Z,23.80
2017-05-20T16:12:56.992Z,23.80
2017-05-20T16:15:25.877Z,23.70
2017-05-20T16:17:54.762Z,23.60
2017-05-20T16:20:22.931Z,23.60
2017-05-20T16:22:51.821Z,23.40
2017-05-20T16:25:20.716Z,23.20
2017-05-20T16:27:49.647Z,23.10
2017-05-20T16:30:18.533Z,22.90
2017-05-20T16:32:47.437Z,22.80
2017-05-20T16:35:16.349Z,22.80
2017-05-20T16:37:45.237Z,22.70
2017-05-20T16:40:14.125Z,22.60
2017-05-20T16:42:43.049Z,22.40
2017-05-20T16:45:11.936Z,22.30
2017-05-20T16:47:40.825Z,22.00
2017-05-20T16:50:09.840Z,21.90
2017-05-20T16:52:38.726Z,21.70
2017-05-20T16:55:07.613Z,21.70
2017-05-20T16:57:36.542Z,21.60
2017-05-20T17:00:05.437Z,21.50
2017-05-20T17:02:34.313Z,21.60
2017-05-20T17:05:03.531Z,21.50
2017-05-20T17:07:32.424Z,21.40
2017-05-20T17:10:01.313Z,21.40
2017-05-20T17:12:30.252Z,21.30
2017-05-20T17:14:59.130Z,21.20
2017-05-20T17:17:28.020Z,21.10
2017-05-20T17:19:56.946Z,21.00
2017-05-20T17:22:25.829Z,21.00
2017-05-20T17:24:54.718Z,20.90
2017-05-20T17:27:22.876Z,20.80
2017-05-20T17:29:51.770Z,20.80
2017-05-20T17:32:20.664Z,20.70
2017-05-20T17:34:49.672Z,20.70
2017-05-20T17:37:18.557Z,20.60
2017-05-20T17:39:47.441Z,20.50
2017-05-20T17:42:16.361Z,20.40
2017-05-20T17:44:45.247Z,20.30
2017-05-20T17:47:14.137Z,20.20
2017-05-20T17:49:43.056Z,20.10
2017-05-20T17:52:11.944Z,20.10
2017-05-20T17:54:40.833Z,20.00
2017-05-20T17:57:09.854Z,19.90
2017-05-20T17:59:38.738Z,19.80
2017-05-20T18:02:07.627Z,19.80
2017-05-20T18:04:36.549Z,19.80
2017-05-20T18:07:05.434Z,19.70
2017-05-20T18:09:34.330Z,19.60
2017-05-20T18:12:03.245Z,19.50
2017-05-20T18:14:32.139Z,19.40
2017-05-20T18:17:01.026Z,19.40
2017-05-20T18:19:29.946Z,19.30
2017-05-20T18:21:58.832Z,19.20
2017-05-20T18:24:27.717Z,19.10
2017-05-20T18:26:56.636Z,19.10
2017-05-20T18:29:25.522Z,19.10
2017-05-20T18:31:54.412Z,19.00
2017-05-20T18:34:24.289Z,19.00
2017-05-20T18:36:53.172Z,18.90
2017-05-20T18:39:22.065Z,18.80
2017-05-20T18:41:51.005Z,18.80
2017-05-20T18:44:19.132Z,18.80
2017-05-20T18:46:48.022Z,18.70
2017-05-20T18:49:16.941Z,18.70
2017-05-20T18:51:45.826Z,18.60
2017-05-20T18:54:14.711Z,18.50
2017-05-20T18:56:43.629Z,18.40
2017-05-20T18:59:12.512Z,18.30
2017-05-20T19:01:41.405Z,18.30
2017-05-20T19:04:10.418Z,18.30
2017-05-20T19:06:39.306Z,18.30
2017-05-20T19:09:08.743Z,18.20
2017-05-20T19:11:37.671Z,18.30
2017-05-20T19:14:06.553Z,18.30
2017-05-20T19:16:35.447Z,18.30
2017-05-20T19:19:04.373Z,18.30
2017-05-20T19:21:33.255Z,18.30
2017-05-20T19:24:02.138Z,18.20
2017-05-20T19:26:31.057Z,18.20
2017-05-20T19:28:59.953Z,18.10
2017-05-20T19:31:28.845Z,18.10
2017-05-20T19:33:57.773Z,18.00
2017-05-20T19:36:26.662Z,18.00
2017-05-20T19:38:55.553Z,18.00
2017-05-20T19:41:24.477Z,18.00
2017-05-20T19:43:53.361Z,18.00
2017-05-20T19:46:22.249Z,17.90
2017-05-20T19:48:51.170Z,17.90
2017-05-20T19:51:20.057Z,17.90
2017-05-20T19:53:48.940Z,17.90
2017-05-20T19:56:17.866Z,17.80
2017-05-20T19:58:46.752Z,17.80
2017-05-20T20:01:15.636Z,17.70
2017-05-20T20:03:44.662Z,17.70
2017-05-20T20:06:13.550Z,17.70
2017-05-20T20:08:42.441Z,17.70
2017-05-20T20:11:11.453Z,17.70
2017-05-20T20:13:40.343Z,17.70
2017-05-20T20:16:09.226Z,17.70
2017-05-20T20:18:38.178Z,17.70
2017-05-20T20:21:07.066Z,17.60
2017-05-20T20:23:35.960Z,17.60
2017-05-20T20:26:04.885Z,17.50
2017-05-20T20:28:33.765Z,17.40
2017-05-20T20:31:02.650Z,17.40
2017-05-20T20:33:31.569Z,17.30
2017-05-20T20:36:00.454Z,17.30
2017-05-20T20:38:29.347Z,17.30
2017-05-20T20:40:58.266Z,17.20
2017-05-20T20:43:27.150Z,17.20
2017-05-20T20:45:56.043Z,17.20
2017-05-20T20:48:24.954Z,17.20
2017-05-20T20:50:53.085Z,17.20
2017-05-20T20:53:21.970Z,17.20
2017-05-20T20:55:50.897Z,17.10
2017-05-20T20:58:19.785Z,17.10
2017-05-20T21:00:48.669Z,17.10
2017-05-20T21:03:17.704Z,17.10
2017-05-20T21:05:46.581Z,17.10
2017-05-20T21:08:14.697Z,17.00
2017-05-20T21:10:43.630Z,17.00
2017-05-20T21:13:12.514Z,17.00
2017-05-20T21:15:41.408Z,17.00
2017-05-20T21:18:10.417Z,17.00
2017-05-20T21:20:39.302Z,17.00
2017-05-20T21:23:08.187Z,17.00
2017-05-20T21:25:37.108Z,17.00
2017-05-20T21:28:05.993Z,16.90
2017-05-20T21:30:34.880Z,16.80
2017-05-20T21:33:03.810Z,16.80
2017-05-20T21:35:32.693Z,16.80
2017-05-20T21:38:01.581Z,16.70
2017-05-20T21:40:30.597Z,16.70
2017-05-20T21:42:59.490Z,16.60
2017-05-20T21:45:28.394Z,16.60
2017-05-20T21:47:57.318Z,16.60
2017-05-20T21:50:26.201Z,16.60
2017-05-20T21:52:55.093Z,16.60
2017-05-20T21:55:24.021Z,16.70
2017-05-20T21:57:52.909Z,16.70
2017-05-20T22:00:21.798Z,16.80
2017-05-20T22:02:50.744Z,16.80
2017-05-20T22:05:19.633Z,16.70
2017-05-20T22:07:48.529Z,16.70
2017-05-20T22:10:17.457Z,16.70
2017-05-20T22:12:46.347Z,16.70
2017-05-20T22:15:15.229Z,16.70
2017-05-20T22:17:44.151Z,16.70
2017-05-20T22:20:13.038Z,16.70
2017-05-20T22:22:41.926Z,16.70
2017-05-20T22:25:10.952Z,16.70
2017-05-20T22:27:39.838Z,16.60
2017-05-20T22:30:08.728Z,16.60
2017-05-20T22:32:37.688Z,16.50
2017-05-20T22:35:06.589Z,16.50
2017-05-20T22:37:35.478Z,16.50
2017-05-20T22:40:04.409Z,16.50
2017-05-20T22:42:33.293Z,16.50
2017-05-20T22:45:02.180Z,16.50
2017-05-20T22:47:31.105Z,16.60
2017-05-20T22:49:59.985Z,16.60
2017-05-20T22:52:28.869Z,16.60
2017-05-20T22:54:57.882Z,16.60
2017-05-20T22:57:26.777Z,16.60
2017-05-20T22:59:55.658Z,16.60
2017-05-20T23:02:24.579Z,16.60
2017-05-20T23:04:53.463Z,16.70
2017-05-20T23:07:22.345Z,16.70
2017-05-20T23:09:51.285Z,16.70
2017-05-20T23:12:21.577Z,16.80
2017-05-20T23:14:50.462Z,16.70
2017-05-20T23:17:19.382Z,16.70
2017-05-20T23:19:51.599Z,16.80
2017-05-20T23:22:20.534Z,16.80
2017-05-20T23:24:49.410Z,16.80
2017-05-20T23:27:18.293Z,16.80
2017-05-20T23:29:47.221Z,16.80
2017-05-20T23:32:16.102Z,16.80
2017-05-20T23:34:44.992Z,16.80
2017-05-20T23:37:14.132Z,16.80
2017-05-20T23:39:43.028Z,16.80
2017-05-20T23:42:11.920Z,16.80
2017-05-20T23:44:40.844Z,16.90
2017-05-20T23:47:09.733Z,16.90
2017-05-20T23:49:38.617Z,16.90
2017-05-20T23:52:07.542Z,16.90
2017-05-20T23:54:36.421Z,17.00
2017-05-20T23:57:05.300Z,16.90
2017-05-20T23:59:34.328Z,16.90
